EFMI

Details ICAO EFMI (MIK)
Name Mikkeli
Region Finland
Timezone Europe/Helsinki (UTC+2.0)
Plans Departing 0
Arriving 8
Stats Elevation 329 ft / 100 m (AMSL)
Location 61.686750° 27.201691°
Runways 1
Magnetic Variation 10.281° E
Sunrise 2017-12-18 07:30:21 UTC / 2017-12-18 09:30:21 Local
Sunset 2017-12-18 12:47:54 UTC / 2017-12-18 14:47:54 Local
Advertisement - Login to hide

Runways

ID Width Length Bearing (true) Bearing (mag) Surface Threshold Offset Overrun Length
11 144 ft / 44 m 5,565 ft / 1,696 m 112.61° 102.33° Asphalt 817 ft / 249 m 0 ft / 0 m
29 144 ft / 44 m 5,565 ft / 1,696 m 292.63° 282.35° Asphalt 329 ft / 100 m 0 ft / 0 m

Approach Navaids

Runway Type Ident Frequency Range Bearing (true) Bearing (mag) Slope Elevation
11 Localiser MI 109.50 MHz 18 nm / 33 km 112.64° 102.36° - 329 ft / 100 m (AMSL)
11 Glidescope MI 109.50 MHz 10 nm / 19 km 112.62° 102.34° 3.50° 329 ft / 100 m (AMSL)

Map

Weather


0- 5 10 15 20 25 30 35+ Temperature / ° C

Clouds and Precipitation
Forecast for 2017-12-18 06:00 UTC. Updated 2 hours ago

Ground ~20,000 ft ~40,000 ft Winds

METAR

EFMI 180450Z AUTO 22004KT 160V270 9999 OVC010 M02/M03 Q1016

TAF

Not found

Frequencies

Recorded 118.25 MHz ATIS
Tower 119.70 MHz AFIS
Tower 123.00 MHz AFIS
Warning: Do not use this data for real-world aviation or navigation. No guarantee of current accuracy is given.